createdAt,value
2018-09-02T00:02:11.239Z,9.20
2018-09-02T00:04:39.542Z,9.10
2018-09-02T00:07:08.135Z,9.10
2018-09-02T00:09:36.482Z,9.10
2018-09-02T00:12:04.855Z,9.10
2018-09-02T00:14:33.311Z,9.10
2018-09-02T00:17:02.931Z,9.10
2018-09-02T00:19:31.585Z,9.10
2018-09-02T00:21:59.898Z,9.10
2018-09-02T00:24:28.402Z,9.10
2018-09-02T00:26:56.802Z,9.00
2018-09-02T00:29:25.114Z,9.00
2018-09-02T00:31:53.435Z,9.00
2018-09-02T00:34:21.938Z,9.00
2018-09-02T00:36:50.252Z,9.00
2018-09-02T00:39:18.526Z,8.90
2018-09-02T00:41:46.850Z,9.00
2018-09-02T00:44:15.191Z,8.90
2018-09-02T00:46:43.519Z,8.90
2018-09-02T00:49:11.871Z,8.90
2018-09-02T00:51:40.786Z,8.90
2018-09-02T00:54:09.840Z,8.90
2018-09-02T00:56:38.162Z,8.90
2018-09-02T00:59:06.495Z,8.80
2018-09-02T01:01:34.766Z,8.80
2018-09-02T01:04:02.986Z,8.80
2018-09-02T01:06:31.331Z,8.80
2018-09-02T01:08:59.702Z,8.70
2018-09-02T01:11:28.306Z,8.70
2018-09-02T01:13:57.334Z,8.60
2018-09-02T01:16:25.614Z,8.60
2018-09-02T01:18:54.074Z,8.60
2018-09-02T01:21:22.519Z,8.60
2018-09-02T01:23:50.839Z,8.50
2018-09-02T01:26:19.524Z,8.50
2018-09-02T01:28:48.175Z,8.50
2018-09-02T01:31:16.482Z,8.50
2018-09-02T01:33:44.769Z,8.50
2018-09-02T01:36:13.140Z,8.40
2018-09-02T01:38:43.520Z,8.40
2018-09-02T01:41:11.977Z,8.40
2018-09-02T01:43:40.302Z,8.40
2018-09-02T01:46:08.790Z,8.40
2018-09-02T01:48:37.190Z,8.30
2018-09-02T01:51:05.450Z,8.30
2018-09-02T01:53:33.844Z,8.30
2018-09-02T01:56:02.308Z,8.30
2018-09-02T01:58:30.633Z,8.30
2018-09-02T02:00:59.663Z,8.30
2018-09-02T02:03:28.144Z,8.30
2018-09-02T02:05:56.626Z,8.20
2018-09-02T02:08:25.042Z,8.20
2018-09-02T02:10:53.316Z,8.20
2018-09-02T02:13:21.742Z,8.20
2018-09-02T02:15:50.062Z,8.20
2018-09-02T02:18:18.399Z,8.10
2018-09-02T02:20:46.734Z,8.10
2018-09-02T02:23:15.421Z,8.10
2018-09-02T02:25:43.804Z,8.10
2018-09-02T02:28:12.138Z,8.10
2018-09-02T02:30:40.964Z,8.00
2018-09-02T02:33:09.408Z,8.00
2018-09-02T02:35:37.809Z,8.00
2018-09-02T02:38:06.095Z,8.00
2018-09-02T02:40:34.421Z,8.00
2018-09-02T02:43:02.837Z,7.90
2018-09-02T02:45:31.277Z,7.90
2018-09-02T02:48:00.014Z,7.90
2018-09-02T02:50:28.446Z,7.90
2018-09-02T02:53:02.703Z,7.90
2018-09-02T02:55:31.588Z,7.90
2018-09-02T02:58:00.151Z,7.90
2018-09-02T03:00:28.622Z,7.90
2018-09-02T03:02:56.995Z,7.90
2018-09-02T03:05:25.800Z,7.90
2018-09-02T03:07:54.517Z,7.80
2018-09-02T03:10:22.906Z,7.80
2018-09-02T03:12:51.278Z,7.80
2018-09-02T03:15:19.550Z,7.80
2018-09-02T03:17:48.107Z,7.80
2018-09-02T03:20:17.008Z,7.80
2018-09-02T03:22:45.635Z,7.80
2018-09-02T03:25:13.940Z,7.80
2018-09-02T03:27:42.346Z,7.80
2018-09-02T03:30:11.102Z,7.70
2018-09-02T03:32:39.430Z,7.70
2018-09-02T03:35:07.759Z,7.70
2018-09-02T03:37:36.416Z,7.70
2018-09-02T03:40:05.466Z,7.80
2018-09-02T03:42:33.911Z,7.80
2018-09-02T03:45:02.276Z,7.80
2018-09-02T03:47:30.943Z,7.80
2018-09-02T03:49:59.210Z,7.70
2018-09-02T03:52:27.588Z,7.70
2018-09-02T03:54:55.882Z,7.70
2018-09-02T03:57:24.242Z,7.70
2018-09-02T03:59:52.749Z,7.70
2018-09-02T04:02:21.589Z,7.60
2018-09-02T04:04:49.927Z,7.60
2018-09-02T04:07:19.075Z,7.60
2018-09-02T04:09:47.530Z,7.60
2018-09-02T04:12:16.499Z,7.60
2018-09-02T04:14:44.888Z,7.50
2018-09-02T04:17:13.297Z,7.60
2018-09-02T04:19:41.602Z,7.60
2018-09-02T04:22:10.047Z,7.60
2018-09-02T04:24:38.355Z,7.60
2018-09-02T04:27:06.638Z,7.50
2018-09-02T04:29:34.994Z,7.50
2018-09-02T04:32:03.579Z,7.50
2018-09-02T04:34:31.861Z,7.50
2018-09-02T04:37:00.170Z,7.50
2018-09-02T04:39:28.780Z,7.50
2018-09-02T04:41:57.070Z,7.50
2018-09-02T04:44:25.660Z,7.40
2018-09-02T04:46:53.942Z,7.50
2018-09-02T04:49:22.219Z,7.50
2018-09-02T04:51:50.622Z,7.60
2018-09-02T04:54:19.602Z,7.70
2018-09-02T04:56:47.875Z,7.70
2018-09-02T04:59:16.236Z,7.80
2018-09-02T05:01:44.607Z,7.80
2018-09-02T05:04:12.982Z,7.90
2018-09-02T05:06:42.310Z,7.90
2018-09-02T05:09:10.670Z,8.00
2018-09-02T05:11:40.078Z,8.10
2018-09-02T05:14:08.834Z,8.10
2018-09-02T05:16:37.270Z,8.10
2018-09-02T05:19:05.649Z,8.20
2018-09-02T05:21:34.184Z,8.20
2018-09-02T05:24:02.585Z,8.30
2018-09-02T05:26:31.595Z,8.30
2018-09-02T05:29:00.082Z,8.30
2018-09-02T05:31:28.452Z,8.30
2018-09-02T05:33:56.835Z,8.40
2018-09-02T05:36:25.231Z,8.40
2018-09-02T05:38:53.902Z,8.30
2018-09-02T05:41:22.452Z,8.40
2018-09-02T05:43:51.201Z,8.40
2018-09-02T05:46:20.591Z,8.60
2018-09-02T05:48:48.935Z,8.60
2018-09-02T05:51:17.497Z,8.70
2018-09-02T05:53:45.909Z,8.90
2018-09-02T05:56:14.322Z,9.00
2018-09-02T05:58:43.597Z,9.10
2018-09-02T06:01:11.951Z,9.30
2018-09-02T06:03:40.525Z,9.40
2018-09-02T06:06:08.830Z,9.50
2018-09-02T06:08:37.466Z,9.70
2018-09-02T06:11:05.846Z,9.80
2018-09-02T06:13:34.138Z,10.00
2018-09-02T06:16:02.950Z,10.30
2018-09-02T06:18:31.308Z,10.40
2018-09-02T06:20:59.937Z,10.60
2018-09-02T06:23:28.382Z,10.70
2018-09-02T06:25:57.090Z,10.80
2018-09-02T06:28:25.485Z,10.90
2018-09-02T06:30:54.074Z,11.00
2018-09-02T06:33:22.326Z,11.30
2018-09-02T06:35:51.130Z,11.60
2018-09-02T06:38:19.816Z,11.90
2018-09-02T06:40:49.216Z,12.20
2018-09-02T06:43:17.963Z,12.60
2018-09-02T06:45:46.547Z,12.80
2018-09-02T06:48:17.832Z,13.10
2018-09-02T06:50:46.251Z,13.20
2018-09-02T06:53:14.805Z,13.20
2018-09-02T06:55:43.457Z,13.20
2018-09-02T06:58:12.178Z,13.00
2018-09-02T07:00:42.254Z,12.90
2018-09-02T07:03:10.575Z,13.00
2018-09-02T07:05:39.269Z,13.30
2018-09-02T07:08:08.664Z,13.60
2018-09-02T07:10:36.938Z,14.20
2018-09-02T07:13:05.340Z,14.30
2018-09-02T07:15:33.673Z,14.90
2018-09-02T07:18:02.190Z,15.60
2018-09-02T07:20:30.627Z,15.70
2018-09-02T07:22:59.423Z,16.50
2018-09-02T07:25:27.751Z,17.20
2018-09-02T07:27:56.402Z,17.50
2018-09-02T07:30:25.079Z,17.60
2018-09-02T07:32:53.457Z,17.60
2018-09-02T07:35:22.106Z,17.50
2018-09-02T07:37:50.581Z,17.70
2018-09-02T07:40:19.173Z,17.60
2018-09-02T07:42:48.323Z,17.50
2018-09-02T07:45:17.515Z,17.70
2018-09-02T07:47:45.983Z,17.70
2018-09-02T07:50:14.282Z,17.50
2018-09-02T07:52:42.759Z,16.90
2018-09-02T07:55:11.141Z,16.60
2018-09-02T07:57:39.804Z,16.30
2018-09-02T08:00:09.326Z,16.30
2018-09-02T08:02:37.692Z,16.10
2018-09-02T08:05:06.168Z,16.10
2018-09-02T08:07:34.518Z,16.10
2018-09-02T08:10:02.943Z,16.20
2018-09-02T08:12:31.384Z,16.10
2018-09-02T08:14:59.772Z,16.00
2018-09-02T08:17:28.267Z,16.00
2018-09-02T08:19:56.682Z,16.00
2018-09-02T08:22:24.957Z,16.10
2018-09-02T08:24:53.530Z,16.10
2018-09-02T08:27:21.778Z,16.20
2018-09-02T08:29:50.151Z,16.40
2018-09-02T08:32:19.045Z,16.50
2018-09-02T08:34:47.921Z,16.40
2018-09-02T08:37:16.232Z,16.50
2018-09-02T08:39:44.814Z,16.60
2018-09-02T08:42:13.095Z,16.50
2018-09-02T08:44:41.501Z,16.40
2018-09-02T08:47:09.774Z,16.30
2018-09-02T08:49:39.074Z,16.40
2018-09-02T08:52:08.030Z,16.30
2018-09-02T08:54:36.399Z,16.30
2018-09-02T08:57:04.754Z,16.30
2018-09-02T08:59:33.619Z,16.30
2018-09-02T09:02:02.460Z,16.40
2018-09-02T09:04:30.774Z,16.60
2018-09-02T09:06:59.153Z,16.70
2018-09-02T09:09:28.090Z,16.70
2018-09-02T09:11:56.828Z,16.60
2018-09-02T09:14:25.213Z,16.60
2018-09-02T09:16:58.731Z,16.60
2018-09-02T09:19:27.551Z,16.50
2018-09-02T09:21:56.494Z,16.40
2018-09-02T09:24:24.854Z,16.40
2018-09-02T09:26:53.559Z,16.40
2018-09-02T09:29:21.897Z,16.40
2018-09-02T09:31:50.315Z,16.60
2018-09-02T09:34:19.037Z,16.80
2018-09-02T09:36:47.417Z,17.00
2018-09-02T09:39:15.957Z,17.10
2018-09-02T09:41:44.706Z,17.20
2018-09-02T09:44:13.218Z,17.20
2018-09-02T09:46:43.085Z,17.30
2018-09-02T09:49:11.662Z,17.30
2018-09-02T09:51:40.786Z,17.40
2018-09-02T09:54:09.190Z,17.50
2018-09-02T09:56:37.474Z,17.70
2018-09-02T09:59:05.751Z,18.00
2018-09-02T10:01:34.062Z,18.10
2018-09-02T10:04:02.893Z,18.20
2018-09-02T10:06:31.184Z,18.60
2018-09-02T10:08:59.479Z,18.70
2018-09-02T10:11:27.750Z,18.60
2018-09-02T10:13:56.687Z,18.60
2018-09-02T10:16:25.087Z,18.50
2018-09-02T10:18:53.514Z,18.50
2018-09-02T10:21:21.862Z,18.50
2018-09-02T10:23:50.129Z,18.30
2018-09-02T10:26:18.830Z,18.20
2018-09-02T10:28:47.176Z,18.30
2018-09-02T10:31:15.618Z,18.30
2018-09-02T10:33:44.011Z,18.30
2018-09-02T10:36:12.606Z,18.30
2018-09-02T10:38:41.550Z,18.50
2018-09-02T10:41:09.991Z,18.60
2018-09-02T10:43:38.300Z,18.70
2018-09-02T10:46:06.779Z,18.90
2018-09-02T10:48:35.147Z,18.90
2018-09-02T10:51:03.594Z,18.80
2018-09-02T10:53:32.221Z,18.90
2018-09-02T10:56:00.776Z,18.90
2018-09-02T10:58:29.703Z,18.80
2018-09-02T11:00:58.102Z,18.60
2018-09-02T11:03:26.718Z,18.30
2018-09-02T11:05:55.162Z,18.30
2018-09-02T11:08:23.722Z,18.50
2018-09-02T11:10:52.011Z,18.50
2018-09-02T11:13:20.347Z,18.50
2018-09-02T11:15:48.560Z,18.30
2018-09-02T11:18:16.955Z,18.40
2018-09-02T11:20:45.501Z,18.30
2018-09-02T11:23:13.910Z,18.30
2018-09-02T11:25:42.569Z,18.40
2018-09-02T11:28:10.918Z,18.30
2018-09-02T11:30:39.240Z,18.20
2018-09-02T11:33:07.702Z,18.40
2018-09-02T11:35:36.217Z,18.40
2018-09-02T11:38:04.575Z,18.30
2018-09-02T11:40:32.937Z,18.30
2018-09-02T11:43:01.398Z,18.40
2018-09-02T11:45:30.090Z,18.50
2018-09-02T11:47:58.378Z,18.60
2018-09-02T11:50:26.711Z,18.50
2018-09-02T11:52:55.154Z,18.40
2018-09-02T11:55:23.866Z,18.40
2018-09-02T11:57:52.515Z,18.40
2018-09-02T12:00:20.763Z,18.40
2018-09-02T12:02:49.238Z,18.50
2018-09-02T12:05:17.718Z,18.60
2018-09-02T12:07:46.402Z,18.80
2018-09-02T12:10:15.043Z,19.00
2018-09-02T12:12:43.371Z,18.90
2018-09-02T12:15:11.842Z,19.20
2018-09-02T12:17:40.399Z,19.10
2018-09-02T12:20:09.248Z,19.20
2018-09-02T12:22:37.734Z,18.70
2018-09-02T12:25:06.113Z,18.70
2018-09-02T12:27:34.408Z,18.60
2018-09-02T12:30:02.787Z,18.70
2018-09-02T12:32:31.057Z,18.60
2018-09-02T12:34:59.349Z,18.50
2018-09-02T12:37:27.605Z,18.40
2018-09-02T12:39:55.931Z,18.40
2018-09-02T12:42:26.222Z,18.50
2018-09-02T12:44:54.983Z,18.60
2018-09-02T12:47:24.299Z,18.50
2018-09-02T12:49:52.578Z,18.50
2018-09-02T12:52:20.854Z,18.50
2018-09-02T12:54:49.162Z,18.40
2018-09-02T12:57:17.608Z,18.30
2018-09-02T12:59:46.483Z,18.30
2018-09-02T13:02:15.144Z,18.30
2018-09-02T13:04:44.105Z,18.40
2018-09-02T13:07:12.618Z,18.30
2018-09-02T13:09:40.953Z,18.40
2018-09-02T13:12:09.604Z,18.40
2018-09-02T13:14:38.370Z,18.30
2018-09-02T13:17:07.052Z,18.40
2018-09-02T13:19:35.756Z,18.50
2018-09-02T13:22:04.389Z,18.40
2018-09-02T13:24:32.777Z,18.50
2018-09-02T13:27:01.030Z,18.50
2018-09-02T13:29:29.334Z,18.60
2018-09-02T13:31:57.736Z,18.30
2018-09-02T13:34:27.361Z,18.20
2018-09-02T13:36:55.745Z,18.10
2018-09-02T13:39:24.103Z,18.00
2018-09-02T13:41:52.729Z,18.10
2018-09-02T13:44:21.060Z,18.30
2018-09-02T13:46:49.434Z,18.10
2018-09-02T13:49:18.054Z,18.30
2018-09-02T13:51:46.366Z,18.40
2018-09-02T13:54:14.881Z,18.50
2018-09-02T13:56:43.455Z,18.60
2018-09-02T13:59:11.694Z,18.60
2018-09-02T14:01:39.971Z,18.50
2018-09-02T14:04:08.229Z,18.50
2018-09-02T14:06:36.522Z,18.40
2018-09-02T14:09:06.239Z,18.40
2018-09-02T14:11:34.510Z,18.40
2018-09-02T14:14:02.958Z,18.40
2018-09-02T14:16:31.703Z,18.30
2018-09-02T14:18:59.947Z,18.20
2018-09-02T14:21:28.337Z,18.30
2018-09-02T14:23:56.758Z,18.20
2018-09-02T14:26:25.085Z,18.30
2018-09-02T14:28:53.725Z,18.30
2018-09-02T14:31:22.155Z,18.30
2018-09-02T14:33:50.527Z,18.30
2018-09-02T14:36:19.107Z,18.20
2018-09-02T14:38:47.422Z,18.20
2018-09-02T14:41:16.178Z,18.20
2018-09-02T14:43:44.485Z,18.20
2018-09-02T14:46:12.877Z,18.30
2018-09-02T14:48:41.386Z,18.30
2018-09-02T14:51:09.996Z,18.40
2018-09-02T14:53:38.379Z,18.40
2018-09-02T14:56:06.767Z,18.40
2018-09-02T14:58:35.118Z,18.50
2018-09-02T15:01:03.725Z,18.60
2018-09-02T15:03:32.038Z,18.60
2018-09-02T15:06:00.419Z,18.70
2018-09-02T15:08:29.775Z,18.80
2018-09-02T15:10:58.138Z,19.00
2018-09-02T15:13:26.477Z,19.00
2018-09-02T15:15:54.897Z,19.10
2018-09-02T15:18:23.186Z,19.20
2018-09-02T15:20:51.930Z,19.10
2018-09-02T15:23:20.305Z,19.00
2018-09-02T15:25:48.665Z,18.80
2018-09-02T15:28:17.044Z,18.80
2018-09-02T15:30:45.388Z,18.80
2018-09-02T15:33:13.883Z,18.80
2018-09-02T15:35:42.261Z,18.70
2018-09-02T15:38:10.625Z,18.70
2018-09-02T15:40:38.921Z,18.70
2018-09-02T15:43:07.490Z,18.50
2018-09-02T15:45:36.184Z,18.50
2018-09-02T15:48:04.714Z,18.50
2018-09-02T15:50:33.066Z,18.40
2018-09-02T15:53:01.446Z,18.40
2018-09-02T15:55:30.254Z,18.30
2018-09-02T15:57:58.636Z,18.30
2018-09-02T16:00:27.449Z,18.20
2018-09-02T16:02:55.865Z,18.20
2018-09-02T16:05:26.179Z,18.10
2018-09-02T16:07:54.456Z,18.10
2018-09-02T16:10:22.794Z,18.10
2018-09-02T16:12:51.291Z,18.10
2018-09-02T16:15:19.687Z,18.10
2018-09-02T16:17:48.228Z,18.10
2018-09-02T16:20:17.054Z,18.10
2018-09-02T16:22:45.354Z,18.10
2018-09-02T16:25:13.919Z,18.10
2018-09-02T16:33:33.140Z,18.10
2018-09-02T16:36:01.605Z,18.10
2018-09-02T16:38:30.395Z,18.00
2018-09-02T16:40:59.662Z,18.00
2018-09-02T16:43:29.244Z,18.00
2018-09-02T16:45:57.562Z,18.00
2018-09-02T16:48:25.880Z,18.10
2018-09-02T16:50:54.440Z,18.00
2018-09-02T16:53:22.725Z,18.10
2018-09-02T16:55:51.009Z,18.10
2018-09-02T16:58:19.329Z,18.10
2018-09-02T17:00:47.668Z,18.00
2018-09-02T17:03:16.101Z,18.00
2018-09-02T17:05:44.479Z,18.00
2018-09-02T17:08:14.792Z,18.00
2018-09-02T17:10:43.222Z,18.10
2018-09-02T17:13:11.606Z,18.10
2018-09-02T17:15:40.893Z,18.10
2018-09-02T17:18:09.733Z,18.10
2018-09-02T17:20:40.321Z,18.10
2018-09-02T17:23:12.331Z,18.10
2018-09-02T17:25:42.620Z,18.00
2018-09-02T17:28:12.429Z,18.00
2018-09-02T17:30:42.113Z,17.90
2018-09-02T17:33:12.457Z,17.90
2018-09-02T17:35:41.743Z,17.90
2018-09-02T17:38:11.364Z,17.80
2018-09-02T17:40:40.385Z,17.80
2018-09-02T17:43:09.988Z,17.80
2018-09-02T17:45:38.677Z,17.70
2018-09-02T17:48:07.050Z,17.60
2018-09-02T17:50:35.393Z,17.60
2018-09-02T17:53:03.693Z,17.60
2018-09-02T17:55:31.986Z,17.60
2018-09-02T17:58:01.249Z,17.50
2018-09-02T18:00:35.568Z,17.50
2018-09-02T18:03:03.845Z,17.50
2018-09-02T18:05:32.662Z,17.50
2018-09-02T18:08:01.066Z,17.40
2018-09-02T18:10:29.822Z,17.40
2018-09-02T18:18:43.039Z,17.40
2018-09-02T18:21:11.462Z,17.30
2018-09-02T18:23:39.922Z,17.30
2018-09-02T18:26:08.299Z,17.30
2018-09-02T18:28:39.426Z,17.30
2018-09-02T18:31:07.999Z,17.30
2018-09-02T18:33:36.380Z,17.30
2018-09-02T18:36:04.739Z,17.30
2018-09-02T18:38:33.472Z,17.20
2018-09-02T18:41:01.865Z,17.20
2018-09-02T18:43:30.134Z,17.20
2018-09-02T18:45:58.485Z,17.20
2018-09-02T18:48:26.825Z,17.20
2018-09-02T18:50:55.145Z,17.10
2018-09-02T18:53:23.630Z,17.10
2018-09-02T18:55:52.286Z,17.10
2018-09-02T18:58:20.931Z,17.10
2018-09-02T19:00:49.184Z,17.10
2018-09-02T19:03:17.469Z,17.10
2018-09-02T19:05:45.747Z,17.00
2018-09-02T19:08:14.272Z,17.00
2018-09-02T19:10:43.318Z,17.00
2018-09-02T19:13:11.681Z,17.00
2018-09-02T19:15:40.902Z,17.00
2018-09-02T19:18:09.387Z,16.90
2018-09-02T19:20:37.686Z,16.90
2018-09-02T19:23:06.086Z,16.90
2018-09-02T19:25:34.997Z,16.90
2018-09-02T19:28:03.334Z,16.90
2018-09-02T19:30:31.903Z,16.90
2018-09-02T19:33:00.205Z,16.90
2018-09-02T19:35:28.873Z,16.90
2018-09-02T19:37:57.417Z,16.80
2018-09-02T19:40:26.771Z,16.80
2018-09-02T19:42:55.240Z,16.80
2018-09-02T19:45:23.570Z,16.70
2018-09-02T19:47:51.943Z,16.80
2018-09-02T19:50:20.243Z,16.70
2018-09-02T19:52:48.622Z,16.70
2018-09-02T19:55:16.954Z,16.70
2018-09-02T19:57:45.771Z,16.70
2018-09-02T20:00:14.700Z,16.70
2018-09-02T20:02:43.114Z,16.70
2018-09-02T20:05:11.982Z,16.70
2018-09-02T20:07:40.312Z,16.60
2018-09-02T20:10:08.875Z,16.60
2018-09-02T20:12:37.277Z,16.60
2018-09-02T20:15:06.086Z,16.50
2018-09-02T20:17:34.431Z,16.50
2018-09-02T20:20:02.714Z,16.50
2018-09-02T20:22:31.110Z,16.50
2018-09-02T20:24:59.490Z,16.50
2018-09-02T20:27:27.939Z,16.50
2018-09-02T20:29:56.508Z,16.40
2018-09-02T20:32:25.240Z,16.40
2018-09-02T20:34:53.553Z,16.40
2018-09-02T20:37:21.829Z,16.40
2018-09-02T20:39:50.104Z,16.40
2018-09-02T20:42:18.598Z,16.40
2018-09-02T20:44:46.985Z,16.40
2018-09-02T20:47:15.357Z,16.30
2018-09-02T20:49:43.639Z,16.40
2018-09-02T20:52:12.248Z,16.30
2018-09-02T20:54:41.279Z,16.30
2018-09-02T20:57:09.793Z,16.30
2018-09-02T20:59:38.450Z,16.30
2018-09-02T21:02:07.079Z,16.30
2018-09-02T21:04:35.923Z,16.30
2018-09-02T21:07:04.311Z,16.30
2018-09-02T21:09:32.880Z,16.30
2018-09-02T21:12:01.206Z,16.30
2018-09-02T21:14:29.746Z,16.20
2018-09-02T21:16:58.089Z,16.20
2018-09-02T21:19:26.681Z,16.30
2018-09-02T21:21:55.679Z,16.20
2018-09-02T21:24:24.082Z,16.20
2018-09-02T21:26:52.396Z,16.20
2018-09-02T21:29:21.198Z,16.20
2018-09-02T21:31:49.569Z,16.20
2018-09-02T21:34:17.987Z,16.20
2018-09-02T21:36:46.291Z,16.10
2018-09-02T21:39:15.205Z,16.10
2018-09-02T21:41:43.649Z,16.10
2018-09-02T21:44:12.325Z,16.10
2018-09-02T21:46:40.662Z,16.10
2018-09-02T21:49:09.250Z,16.10
2018-09-02T21:51:37.609Z,16.10
2018-09-02T21:54:06.347Z,16.10
2018-09-02T21:56:34.942Z,16.00
2018-09-02T21:59:03.665Z,16.10
2018-09-02T22:03:24.301Z,16.00
2018-09-02T22:05:52.689Z,16.00
2018-09-02T22:08:20.991Z,16.00
2018-09-02T22:10:49.583Z,16.00
2018-09-02T22:13:17.931Z,16.00
2018-09-02T22:15:46.215Z,16.00
2018-09-02T22:18:14.482Z,16.00
2018-09-02T22:20:42.806Z,16.00
2018-09-02T22:23:11.657Z,16.00
2018-09-02T22:25:40.183Z,16.00
2018-09-02T22:28:08.427Z,16.00
2018-09-02T22:30:36.786Z,16.00
2018-09-02T22:33:05.249Z,16.00
2018-09-02T22:35:34.187Z,16.00
2018-09-02T22:38:02.453Z,16.00
2018-09-02T22:40:30.741Z,16.00
2018-09-02T22:42:59.171Z,15.90
2018-09-02T22:45:27.409Z,15.90
2018-09-02T22:47:55.887Z,16.00
2018-09-02T22:50:24.309Z,15.90
2018-09-02T22:52:52.530Z,15.90
2018-09-02T22:55:20.926Z,15.90
2018-09-02T22:57:49.740Z,15.90
2018-09-02T23:00:17.958Z,15.90
2018-09-02T23:02:46.258Z,15.90
2018-09-02T23:05:14.591Z,15.90
2018-09-02T23:07:42.906Z,15.90
2018-09-02T23:10:11.459Z,15.90
2018-09-02T23:12:39.766Z,15.90
2018-09-02T23:15:08.063Z,15.90
2018-09-02T23:17:36.369Z,15.90
2018-09-02T23:20:04.839Z,15.90
2018-09-02T23:22:33.379Z,15.90
2018-09-02T23:25:01.678Z,15.80
2018-09-02T23:27:29.971Z,15.90
2018-09-02T23:29:58.497Z,15.90
2018-09-02T23:32:26.809Z,15.90
2018-09-02T23:34:55.174Z,15.90
2018-09-02T23:37:23.805Z,15.90
2018-09-02T23:39:52.179Z,15.90
2018-09-02T23:42:20.486Z,15.90
2018-09-02T23:44:48.897Z,15.90
2018-09-02T23:47:17.499Z,15.80
2018-09-02T23:49:45.810Z,15.80
2018-09-02T23:52:14.590Z,15.80
2018-09-02T23:54:42.907Z,15.80
2018-09-02T23:57:11.240Z,15.80
2018-09-02T23:59:39.985Z,15.80
